Maersk Drummond — A8JF3 — position and weather

sailwx.info

Track history (hours):
 
Tides and Currents Weather Stations Pressure Air Temp Water Temp Dewpoint Dewpoint Depression Visibility Wind Speed Wind Dir Waves Ship Positions

Maersk Drummond

Last reported at 2014-Nov-22 19:31 UTC. Time now 2014-Nov-23 01:00 UTC.
Position N 37°08' W 001°11'.

Length 294 m; draft 10 m.

Type: Ship (hazmat cat A). MMSI: 636091082.

Date/timePositionNaut miles runAvg speedWind from/ knotsBaromVisibWave heightAir tempDewpointWater temp
2014-Nov-22 19:31N 37°08' W 001°11'1515.3
2014-Nov-22 18:33N 37°18' W 000°57'1615.5
2014-Nov-22 17:33N 37°28' W 000°43'1615.3
2014-Nov-22 16:30N 37°39' W 000°29'1615.2
2014-Nov-22 15:27N 37°53' W 000°18'8915.1
2014-Nov-22 09:33N 39°09' E 000°41'1514.9
2014-Nov-22 08:34N 39°22' E 000°50'1614.8
2014-Nov-22 07:29N 39°36' E 000°60'1415.3
2014-Nov-22 06:33N 39°49' E 001°09'1615.6
2014-Nov-22 05:33N 40°02' E 001°18'1616.1
2014-Nov-22 04:33N 40°16' E 001°28'1616.0
2014-Nov-22 03:33N 40°31' E 001°38'1615.7
2014-Nov-22 02:33N 40°44' E 001°48'1615.6
2014-Nov-22 01:33N 40°58' E 001°58'1515.4
2014-Nov-22 00:34N 41°11' E 002°08'10 1.8
2014-Nov-21 19:04N 41°21' E 002°10'0 0.0
2014-Nov-21 18:07N 41°21' E 002°10'0 0.0
2014-Nov-21 17:22N 41°21' E 002°10'0 0.0
2014-Nov-21 16:28N 41°21' E 002°10'0 0.0
2014-Nov-21 15:28N 41°21' E 002°10'0 0.0
2014-Nov-21 14:28N 41°21' E 002°10'0 0.0
2014-Nov-21 13:28N 41°21' E 002°10'3 3.1
2014-Nov-21 12:24N 41°18' E 002°11'5 6.4
2014-Nov-21 11:33N 41°18' E 002°18'2016.9
2014-Nov-21 10:21N 41°27' E 002°42'2217.6
2014-Nov-21 09:07N 41°37' E 003°09'1217.5
2014-Nov-21 08:25N 41°42' E 003°23'2018.8
2014-Nov-21 07:21N 41°50' E 003°48'6564.1
2014-Nov-21 06:20N 42°19' E 005°07'39 8.1
2014-Nov-21 01:33N 42°35' E 005°54'1918.7
2014-Nov-21 00:33N 42°43' E 006°17'1918.8
2014-Nov-20 23:33N 42°53' E 006°40'2018.6
2014-Nov-20 22:28N 43°04' E 007°02'2018.0
2014-Nov-20 21:22N 43°15' E 007°25'5817.9
2014-Nov-20 18:09N 43°54' E 008°23'1118.9
2014-Nov-20 17:33N 44°04' E 008°31'1918.6
2014-Nov-20 16:33N 44°20' E 008°44'4 3.6
2014-Nov-20 15:32N 44°24' E 008°46'0 0.0
2014-Nov-20 14:32N 44°24' E 008°46'0 0.0
2014-Nov-20 13:32N 44°24' E 008°46'0 0.0
2014-Nov-20 12:29N 44°24' E 008°46'0 0.0
2014-Nov-20 11:32N 44°24' E 008°46'0 0.0
2014-Nov-20 10:26N 44°24' E 008°46'0 0.1
2014-Nov-20 09:29N 44°24' E 008°46'0 0.1
2014-Nov-20 08:29N 44°24' E 008°46'0 0.1
2014-Nov-20 07:32N 44°24' E 008°46'0 0.0
2014-Nov-20 06:23N 44°24' E 008°46'0 0.0
2014-Nov-20 05:29N 44°24' E 008°46'0 0.0
2014-Nov-20 04:29N 44°24' E 008°46'0 0.0
2014-Nov-20 03:29N 44°24' E 008°46'0 0.1
2014-Nov-20 02:32N 44°24' E 008°46'0 0.0
2014-Nov-20 01:32N 44°24' E 008°46'0 0.0
2014-Nov-20 00:32N 44°24' E 008°46'0 0.1
2014-Nov-19 23:32N 44°24' E 008°46'0 0.0
2014-Nov-19 22:29N 44°24' E 008°46'0 0.0
2014-Nov-19 21:29N 44°24' E 008°46'0 0.0
2014-Nov-19 20:29N 44°24' E 008°46'0 0.0
2014-Nov-19 19:23N 44°24' E 008°46'0 0.0
2014-Nov-19 18:32N 44°24' E 008°46'0 0.0
2014-Nov-19 17:29N 44°24' E 008°46'0 0.0
2014-Nov-19 16:23N 44°24' E 008°46'0 0.1
2014-Nov-19 15:32N 44°24' E 008°46'0 0.1
2014-Nov-19 14:32N 44°24' E 008°46'0 0.0
2014-Nov-19 13:26N 44°24' E 008°46'0 0.0
2014-Nov-19 12:23N 44°24' E 008°46'0 0.0
2014-Nov-19 11:29N 44°24' E 008°46'0 0.0
2014-Nov-19 10:29N 44°24' E 008°46'0 0.1
2014-Nov-19 09:26N 44°24' E 008°46'0 0.1
2014-Nov-19 08:29N 44°24' E 008°46'0 0.0
2014-Nov-19 07:29N 44°24' E 008°46'0 0.0
2014-Nov-19 06:23N 44°24' E 008°46'0 0.0
2014-Nov-19 05:29N 44°24' E 008°46'0 0.0
2014-Nov-19 04:29N 44°24' E 008°46'0 0.0
2014-Nov-19 03:32N 44°23' E 008°46'0 0.0
2014-Nov-19 02:29N 44°24' E 008°46'0 0.0
2014-Nov-19 01:29N 44°24' E 008°46'0 0.0
2014-Nov-19 00:32N 44°24' E 008°46'0 0.0
2014-Nov-18 23:32N 44°24' E 008°46'0 0.0
2014-Nov-18 22:29N 44°24' E 008°46'0 0.0
2014-Nov-18 21:29N 44°24' E 008°46'0 0.2
2014-Nov-18 20:29N 44°24' E 008°46'0 0.1
2014-Nov-18 19:32N 44°24' E 008°46'0 0.0
2014-Nov-18 18:32N 44°24' E 008°46'0 0.0
2014-Nov-18 17:32N 44°24' E 008°46'0 0.1
2014-Nov-18 16:29N 44°24' E 008°46'1 1.3
2014-Nov-18 15:33N 44°25' E 008°46'1 0.7
2014-Nov-18 14:32N 44°25' E 008°47'0 0.0
2014-Nov-18 13:26N 44°25' E 008°47'0 0.0
2014-Nov-18 12:32N 44°25' E 008°47'0 0.0
2014-Nov-18 11:32N 44°25' E 008°47'0 0.0
2014-Nov-18 10:32N 44°25' E 008°47'0 0.0
2014-Nov-18 09:29N 44°25' E 008°47'0 0.0
2014-Nov-18 08:32N 44°25' E 008°47'0 0.0
2014-Nov-18 07:32N 44°25' E 008°47'0 0.0
2014-Nov-18 06:32N 44°25' E 008°47'0 0.0
2014-Nov-18 05:32N 44°25' E 008°47'0 0.0
2014-Nov-18 04:32N 44°25' E 008°47'0 0.0
2014-Nov-18 03:29N 44°25' E 008°47'0 0.0
2014-Nov-18 02:32N 44°25' E 008°47'0 0.0
2014-Nov-18 01:32N 44°25' E 008°47'0 0.0
2014-Nov-18 00:32N 44°25' E 008°47'0 0.0
2014-Nov-17 23:32N 44°25' E 008°47'0 0.0
2014-Nov-17 22:29N 44°25' E 008°47'0 0.0
2014-Nov-17 21:32N 44°25' E 008°47'0 0.0
2014-Nov-17 20:32N 44°25' E 008°47'0 0.0
2014-Nov-17 19:32N 44°25' E 008°47'0 0.0
2014-Nov-17 18:32N 44°25' E 008°47'0 0.0
2014-Nov-17 17:29N 44°25' E 008°47'0 0.0
2014-Nov-17 15:32N 44°25' E 008°47'0 0.0
2014-Nov-17 14:29N 44°25' E 008°47'0 0.0
2014-Nov-17 13:32N 44°25' E 008°47'0 0.0
2014-Nov-17 12:32N 44°25' E 008°47'0 0.0
2014-Nov-17 11:32N 44°25' E 008°47'0 0.0
2014-Nov-17 10:29N 44°25' E 008°47'0 0.0
2014-Nov-17 09:23N 44°25' E 008°47'0 0.0
2014-Nov-17 08:32N 44°25' E 008°47'0 0.0
2014-Nov-17 07:32N 44°25' E 008°47'0 0.0
2014-Nov-17 06:26N 44°25' E 008°47'0 0.0
2014-Nov-17 05:32N 44°25' E 008°47'0 0.0
2014-Nov-17 04:32N 44°25' E 008°47'0 0.0
2014-Nov-17 03:32N 44°25' E 008°47'0 0.0
2014-Nov-17 02:32N 44°25' E 008°47'0 0.0
2014-Nov-17 01:32N 44°25' E 008°47'0 0.0
2014-Nov-17 00:32N 44°25' E 008°47'0 0.0
2014-Nov-16 23:32N 44°25' E 008°47'0 0.0
2014-Nov-16 22:32N 44°25' E 008°47'0 0.0
2014-Nov-16 21:23N 44°25' E 008°47'0 0.0
2014-Nov-16 20:26N 44°25' E 008°47'0 0.0
2014-Nov-16 17:26N 44°25' E 008°47'0 0.0
2014-Nov-16 16:32N 44°25' E 008°47'0 0.0
2014-Nov-16 15:32N 44°25' E 008°47'0 0.0
2014-Nov-16 14:32N 44°25' E 008°47'0 0.0
2014-Nov-16 13:29N 44°25' E 008°47'0 0.0
2014-Nov-16 12:32N 44°25' E 008°47'0 0.0
2014-Nov-16 11:29N 44°25' E 008°47'0 0.0
2014-Nov-16 10:32N 44°25' E 008°47'0 0.0
2014-Nov-16 09:32N 44°25' E 008°47'0 0.0
2014-Nov-16 08:32N 44°25' E 008°47'0 0.0
2014-Nov-16 07:32N 44°25' E 008°47'0 0.0
2014-Nov-16 06:32N 44°25' E 008°47'0 0.0
2014-Nov-16 05:29N 44°25' E 008°47'0 0.0
2014-Nov-16 04:29N 44°25' E 008°47'0 0.0
2014-Nov-16 03:32N 44°25' E 008°47'0 0.0
2014-Nov-16 02:32N 44°25' E 008°47'0 0.0
2014-Nov-16 01:32N 44°25' E 008°47'0 0.0
2014-Nov-16 00:32N 44°25' E 008°47'0 0.0
2014-Nov-15 23:32N 44°25' E 008°47'0 0.0
2014-Nov-15 22:32N 44°25' E 008°47'0 0.0
2014-Nov-15 21:26N 44°25' E 008°47'0 0.0
2014-Nov-15 20:32N 44°25' E 008°47'0 0.0
2014-Nov-15 19:32N 44°25' E 008°47'0 0.0
2014-Nov-15 18:32N 44°25' E 008°47'0 0.0
2014-Nov-15 17:32N 44°25' E 008°47'0 0.0
2014-Nov-15 16:32N 44°25' E 008°47'0 0.0
2014-Nov-15 15:29N 44°25' E 008°47'0 0.0
2014-Nov-15 14:32N 44°25' E 008°47'0 0.0
2014-Nov-15 13:32N 44°25' E 008°47'0 0.0
2014-Nov-15 12:32N 44°25' E 008°47'0 0.0
2014-Nov-15 11:32N 44°25' E 008°47'0 0.0
2014-Nov-15 10:32N 44°25' E 008°47'0 0.0
2014-Nov-15 09:32N 44°25' E 008°47'0 0.0
2014-Nov-15 08:29N 44°25' E 008°47'0 0.0
2014-Nov-15 07:32N 44°25' E 008°47'0 0.0
2014-Nov-15 06:32N 44°25' E 008°47'0 0.0
2014-Nov-15 05:32N 44°25' E 008°47'0 0.0
2014-Nov-15 04:32N 44°25' E 008°47'0 0.0
2014-Nov-15 03:32N 44°25' E 008°47'0 0.0
2014-Nov-15 02:29N 44°25' E 008°47'0 0.0
2014-Nov-15 01:23N 44°25' E 008°47'0 0.0
2014-Nov-15 00:32N 44°25' E 008°47'0 0.0
2014-Nov-14 23:32N 44°25' E 008°47'0 0.0
2014-Nov-14 22:32N 44°25' E 008°47'1 0.7
2014-Nov-14 21:33N 44°25' E 008°46'6 5.6
2014-Nov-14 20:33N 44°20' E 008°46'1514.9
2014-Nov-14 19:34N 44°08' E 008°59'1514.6
2014-Nov-14 18:33N 43°57' E 009°12'1514.7
2014-Nov-14 17:34N 43°48' E 009°29'1514.9
2014-Nov-14 16:33N 43°39' E 009°45'1514.8
2014-Nov-14 15:33N 43°31' E 010°03'1110.9
2014-Nov-14 14:33N 43°33' E 010°17'2 0.9
2014-Nov-14 12:32N 43°34' E 010°18'0 0.0
2014-Nov-14 11:32N 43°34' E 010°18'0 0.0
2014-Nov-14 10:32N 43°34' E 010°18'0 0.0
2014-Nov-14 09:32N 43°34' E 010°18'0 0.0
2014-Nov-14 08:32N 43°34' E 010°18'0 0.0
2014-Nov-14 07:32N 43°34' E 010°18'0 0.0
2014-Nov-14 06:32N 43°34' E 010°18'0 0.0
2014-Nov-14 05:32N 43°34' E 010°18'0 0.0
2014-Nov-14 04:32N 43°34' E 010°18'0 0.0
2014-Nov-14 03:32N 43°34' E 010°18'0 0.0
2014-Nov-14 02:32N 43°34' E 010°18'0 0.0
2014-Nov-14 01:32N 43°34' E 010°18'0 0.0
2014-Nov-14 00:32N 43°34' E 010°18'0 0.0
2014-Nov-13 23:32N 43°34' E 010°18'0 0.0
2014-Nov-13 22:32N 43°34' E 010°18'0 0.0
2014-Nov-13 21:32N 43°34' E 010°18'0 0.0
2014-Nov-13 20:32N 43°34' E 010°18'0 0.0
2014-Nov-13 19:32N 43°34' E 010°18'0 0.0
2014-Nov-13 18:32N 43°34' E 010°18'0 0.0
2014-Nov-13 17:32N 43°34' E 010°18'0 0.0
2014-Nov-13 16:29N 43°34' E 010°18'0 0.0
2014-Nov-13 15:32N 43°34' E 010°18'0 0.0
2014-Nov-13 14:32N 43°34' E 010°18'0 0.0
2014-Nov-13 13:32N 43°34' E 010°18'0 0.0
2014-Nov-13 12:32N 43°34' E 010°18'0 0.0
2014-Nov-13 11:32N 43°34' E 010°18'0 0.0
2014-Nov-13 10:32N 43°34' E 010°18'0 0.0
2014-Nov-13 09:32N 43°34' E 010°18'0 0.0
2014-Nov-13 08:32N 43°34' E 010°18'0 0.0
2014-Nov-13 07:29N 43°34' E 010°18'0 0.0
2014-Nov-13 06:32N 43°34' E 010°18'0 0.0
2014-Nov-13 05:32N 43°34' E 010°18'0 0.0
2014-Nov-13 04:32N 43°34' E 010°18'0 0.0
2014-Nov-13 03:32N 43°34' E 010°18'0 0.0
2014-Nov-13 02:32N 43°34' E 010°18'0 0.0
2014-Nov-13 01:32N 43°34' E 010°18'0 0.0
2014-Nov-13 00:32N 43°34' E 010°18'0 0.0
2014-Nov-12 23:32N 43°34' E 010°18'0 0.0
2014-Nov-12 22:32N 43°34' E 010°18'0 0.0
2014-Nov-12 21:29N 43°34' E 010°18'0 0.0
2014-Nov-12 20:32N 43°34' E 010°18'  
Track history (hours):
 
Tides and Currents Weather Stations Pressure Air Temp Water Temp Dewpoint Dewpoint Depression Visibility Wind Speed Wind Dir Waves Ship Positions

Maersk Drummond

Last reported at 2014-Nov-22 19:31 UTC. Time now 2014-Nov-23 01:00 UTC.
Position N 37°08' W 001°11'.

Length 294 m; draft 10 m.

Type: Ship (hazmat cat A). MMSI: 636091082.

Date/timePositionNaut miles runAvg speedWind from/ knotsBaromVisibWave heightAir tempDewpointWater temp
2014-Nov-22 19:31N 37°08' W 001°11'1515.3
2014-Nov-22 18:33N 37°18' W 000°57'1615.5
2014-Nov-22 17:33N 37°28' W 000°43'1615.3
2014-Nov-22 16:30N 37°39' W 000°29'1615.2
2014-Nov-22 15:27N 37°53' W 000°18'8915.1
2014-Nov-22 09:33N 39°09' E 000°41'1514.9
2014-Nov-22 08:34N 39°22' E 000°50'1614.8
2014-Nov-22 07:29N 39°36' E 000°60'1415.3
2014-Nov-22 06:33N 39°49' E 001°09'1615.6
2014-Nov-22 05:33N 40°02' E 001°18'1616.1
2014-Nov-22 04:33N 40°16' E 001°28'1616.0
2014-Nov-22 03:33N 40°31' E 001°38'1615.7
2014-Nov-22 02:33N 40°44' E 001°48'1615.6
2014-Nov-22 01:33N 40°58' E 001°58'1515.4
2014-Nov-22 00:34N 41°11' E 002°08'10 1.8
2014-Nov-21 19:04N 41°21' E 002°10'0 0.0
2014-Nov-21 18:07N 41°21' E 002°10'0 0.0
2014-Nov-21 17:22N 41°21' E 002°10'0 0.0
2014-Nov-21 16:28N 41°21' E 002°10'0 0.0
2014-Nov-21 15:28N 41°21' E 002°10'0 0.0
2014-Nov-21 14:28N 41°21' E 002°10'0 0.0
2014-Nov-21 13:28N 41°21' E 002°10'3 3.1
2014-Nov-21 12:24N 41°18' E 002°11'5 6.4
2014-Nov-21 11:33N 41°18' E 002°18'2016.9
2014-Nov-21 10:21N 41°27' E 002°42'2217.6
2014-Nov-21 09:07N 41°37' E 003°09'1217.5
2014-Nov-21 08:25N 41°42' E 003°23'2018.8
2014-Nov-21 07:21N 41°50' E 003°48'6564.1
2014-Nov-21 06:20N 42°19' E 005°07'39 8.1
2014-Nov-21 01:33N 42°35' E 005°54'1918.7
2014-Nov-21 00:33N 42°43' E 006°17'1918.8
2014-Nov-20 23:33N 42°53' E 006°40'2018.6
2014-Nov-20 22:28N 43°04' E 007°02'2018.0
2014-Nov-20 21:22N 43°15' E 007°25'5817.9
2014-Nov-20 18:09N 43°54' E 008°23'1118.9
2014-Nov-20 17:33N 44°04' E 008°31'1918.6
2014-Nov-20 16:33N 44°20' E 008°44'4 3.6
2014-Nov-20 15:32N 44°24' E 008°46'0 0.0
2014-Nov-20 14:32N 44°24' E 008°46'0 0.0
2014-Nov-20 13:32N 44°24' E 008°46'0 0.0
2014-Nov-20 12:29N 44°24' E 008°46'0 0.0
2014-Nov-20 11:32N 44°24' E 008°46'0 0.0
2014-Nov-20 10:26N 44°24' E 008°46'0 0.1
2014-Nov-20 09:29N 44°24' E 008°46'0 0.1
2014-Nov-20 08:29N 44°24' E 008°46'0 0.1
2014-Nov-20 07:32N 44°24' E 008°46'0 0.0
2014-Nov-20 06:23N 44°24' E 008°46'0 0.0
2014-Nov-20 05:29N 44°24' E 008°46'0 0.0
2014-Nov-20 04:29N 44°24' E 008°46'0 0.0
2014-Nov-20 03:29N 44°24' E 008°46'0 0.1
2014-Nov-20 02:32N 44°24' E 008°46'0 0.0
2014-Nov-20 01:32N 44°24' E 008°46'0 0.0
2014-Nov-20 00:32N 44°24' E 008°46'0 0.1
2014-Nov-19 23:32N 44°24' E 008°46'0 0.0
2014-Nov-19 22:29N 44°24' E 008°46'0 0.0
2014-Nov-19 21:29N 44°24' E 008°46'0 0.0
2014-Nov-19 20:29N 44°24' E 008°46'0 0.0
2014-Nov-19 19:23N 44°24' E 008°46'0 0.0
2014-Nov-19 18:32N 44°24' E 008°46'0 0.0
2014-Nov-19 17:29N 44°24' E 008°46'0 0.0
2014-Nov-19 16:23N 44°24' E 008°46'0 0.1
2014-Nov-19 15:32N 44°24' E 008°46'0 0.1
2014-Nov-19 14:32N 44°24' E 008°46'0 0.0
2014-Nov-19 13:26N 44°24' E 008°46'0 0.0
2014-Nov-19 12:23N 44°24' E 008°46'0 0.0
2014-Nov-19 11:29N 44°24' E 008°46'0 0.0
2014-Nov-19 10:29N 44°24' E 008°46'0 0.1
2014-Nov-19 09:26N 44°24' E 008°46'0 0.1
2014-Nov-19 08:29N 44°24' E 008°46'0 0.0
2014-Nov-19 07:29N 44°24' E 008°46'0 0.0
2014-Nov-19 06:23N 44°24' E 008°46'0 0.0
2014-Nov-19 05:29N 44°24' E 008°46'0 0.0
2014-Nov-19 04:29N 44°24' E 008°46'0 0.0
2014-Nov-19 03:32N 44°23' E 008°46'0 0.0
2014-Nov-19 02:29N 44°24' E 008°46'0 0.0
2014-Nov-19 01:29N 44°24' E 008°46'0 0.0
2014-Nov-19 00:32N 44°24' E 008°46'0 0.0
2014-Nov-18 23:32N 44°24' E 008°46'0 0.0
2014-Nov-18 22:29N 44°24' E 008°46'0 0.0
2014-Nov-18 21:29N 44°24' E 008°46'0 0.2
2014-Nov-18 20:29N 44°24' E 008°46'0 0.1
2014-Nov-18 19:32N 44°24' E 008°46'0 0.0
2014-Nov-18 18:32N 44°24' E 008°46'0 0.0
2014-Nov-18 17:32N 44°24' E 008°46'0 0.1
2014-Nov-18 16:29N 44°24' E 008°46'1 1.3
2014-Nov-18 15:33N 44°25' E 008°46'1 0.7
2014-Nov-18 14:32N 44°25' E 008°47'0 0.0
2014-Nov-18 13:26N 44°25' E 008°47'0 0.0
2014-Nov-18 12:32N 44°25' E 008°47'0 0.0
2014-Nov-18 11:32N 44°25' E 008°47'0 0.0
2014-Nov-18 10:32N 44°25' E 008°47'0 0.0
2014-Nov-18 09:29N 44°25' E 008°47'0 0.0
2014-Nov-18 08:32N 44°25' E 008°47'0 0.0
2014-Nov-18 07:32N 44°25' E 008°47'0 0.0
2014-Nov-18 06:32N 44°25' E 008°47'0 0.0
2014-Nov-18 05:32N 44°25' E 008°47'0 0.0
2014-Nov-18 04:32N 44°25' E 008°47'0 0.0
2014-Nov-18 03:29N 44°25' E 008°47'0 0.0
2014-Nov-18 02:32N 44°25' E 008°47'0 0.0
2014-Nov-18 01:32N 44°25' E 008°47'0 0.0
2014-Nov-18 00:32N 44°25' E 008°47'0 0.0
2014-Nov-17 23:32N 44°25' E 008°47'0 0.0
2014-Nov-17 22:29N 44°25' E 008°47'0 0.0
2014-Nov-17 21:32N 44°25' E 008°47'0 0.0
2014-Nov-17 20:32N 44°25' E 008°47'0 0.0
2014-Nov-17 19:32N 44°25' E 008°47'0 0.0
2014-Nov-17 18:32N 44°25' E 008°47'0 0.0
2014-Nov-17 17:29N 44°25' E 008°47'0 0.0
2014-Nov-17 15:32N 44°25' E 008°47'0 0.0
2014-Nov-17 14:29N 44°25' E 008°47'0 0.0
2014-Nov-17 13:32N 44°25' E 008°47'0 0.0
2014-Nov-17 12:32N 44°25' E 008°47'0 0.0
2014-Nov-17 11:32N 44°25' E 008°47'0 0.0
2014-Nov-17 10:29N 44°25' E 008°47'0 0.0
2014-Nov-17 09:23N 44°25' E 008°47'0 0.0
2014-Nov-17 08:32N 44°25' E 008°47'0 0.0
2014-Nov-17 07:32N 44°25' E 008°47'0 0.0
2014-Nov-17 06:26N 44°25' E 008°47'0 0.0
2014-Nov-17 05:32N 44°25' E 008°47'0 0.0
2014-Nov-17 04:32N 44°25' E 008°47'0 0.0
2014-Nov-17 03:32N 44°25' E 008°47'0 0.0
2014-Nov-17 02:32N 44°25' E 008°47'0 0.0
2014-Nov-17 01:32N 44°25' E 008°47'0 0.0
2014-Nov-17 00:32N 44°25' E 008°47'0 0.0
2014-Nov-16 23:32N 44°25' E 008°47'0 0.0
2014-Nov-16 22:32N 44°25' E 008°47'0 0.0
2014-Nov-16 21:23N 44°25' E 008°47'0 0.0
2014-Nov-16 20:26N 44°25' E 008°47'0 0.0
2014-Nov-16 17:26N 44°25' E 008°47'0 0.0
2014-Nov-16 16:32N 44°25' E 008°47'0 0.0
2014-Nov-16 15:32N 44°25' E 008°47'0 0.0
2014-Nov-16 14:32N 44°25' E 008°47'0 0.0
2014-Nov-16 13:29N 44°25' E 008°47'0 0.0
2014-Nov-16 12:32N 44°25' E 008°47'0 0.0
2014-Nov-16 11:29N 44°25' E 008°47'0 0.0
2014-Nov-16 10:32N 44°25' E 008°47'0 0.0
2014-Nov-16 09:32N 44°25' E 008°47'0 0.0
2014-Nov-16 08:32N 44°25' E 008°47'0 0.0
2014-Nov-16 07:32N 44°25' E 008°47'0 0.0
2014-Nov-16 06:32N 44°25' E 008°47'0 0.0
2014-Nov-16 05:29N 44°25' E 008°47'0 0.0
2014-Nov-16 04:29N 44°25' E 008°47'0 0.0
2014-Nov-16 03:32N 44°25' E 008°47'0 0.0
2014-Nov-16 02:32N 44°25' E 008°47'0 0.0
2014-Nov-16 01:32N 44°25' E 008°47'0 0.0
2014-Nov-16 00:32N 44°25' E 008°47'0 0.0
2014-Nov-15 23:32N 44°25' E 008°47'0 0.0
2014-Nov-15 22:32N 44°25' E 008°47'0 0.0
2014-Nov-15 21:26N 44°25' E 008°47'0 0.0
2014-Nov-15 20:32N 44°25' E 008°47'0 0.0
2014-Nov-15 19:32N 44°25' E 008°47'0 0.0
2014-Nov-15 18:32N 44°25' E 008°47'0 0.0
2014-Nov-15 17:32N 44°25' E 008°47'0 0.0
2014-Nov-15 16:32N 44°25' E 008°47'0 0.0
2014-Nov-15 15:29N 44°25' E 008°47'0 0.0
2014-Nov-15 14:32N 44°25' E 008°47'0 0.0
2014-Nov-15 13:32N 44°25' E 008°47'0 0.0
2014-Nov-15 12:32N 44°25' E 008°47'0 0.0
2014-Nov-15 11:32N 44°25' E 008°47'0 0.0
2014-Nov-15 10:32N 44°25' E 008°47'0 0.0
2014-Nov-15 09:32N 44°25' E 008°47'0 0.0
2014-Nov-15 08:29N 44°25' E 008°47'0 0.0
2014-Nov-15 07:32N 44°25' E 008°47'0 0.0
2014-Nov-15 06:32N 44°25' E 008°47'0 0.0
2014-Nov-15 05:32N 44°25' E 008°47'0 0.0
2014-Nov-15 04:32N 44°25' E 008°47'0 0.0
2014-Nov-15 03:32N 44°25' E 008°47'0 0.0
2014-Nov-15 02:29N 44°25' E 008°47'0 0.0
2014-Nov-15 01:23N 44°25' E 008°47'0 0.0
2014-Nov-15 00:32N 44°25' E 008°47'0 0.0
2014-Nov-14 23:32N 44°25' E 008°47'0 0.0
2014-Nov-14 22:32N 44°25' E 008°47'1 0.7
2014-Nov-14 21:33N 44°25' E 008°46'6 5.6
2014-Nov-14 20:33N 44°20' E 008°46'1514.9
2014-Nov-14 19:34N 44°08' E 008°59'1514.6
2014-Nov-14 18:33N 43°57' E 009°12'1514.7
2014-Nov-14 17:34N 43°48' E 009°29'1514.9
2014-Nov-14 16:33N 43°39' E 009°45'1514.8
2014-Nov-14 15:33N 43°31' E 010°03'1110.9
2014-Nov-14 14:33N 43°33' E 010°17'2 0.9
2014-Nov-14 12:32N 43°34' E 010°18'0 0.0
2014-Nov-14 11:32N 43°34' E 010°18'0 0.0
2014-Nov-14 10:32N 43°34' E 010°18'0 0.0
2014-Nov-14 09:32N 43°34' E 010°18'0 0.0
2014-Nov-14 08:32N 43°34' E 010°18'0 0.0
2014-Nov-14 07:32N 43°34' E 010°18'0 0.0
2014-Nov-14 06:32N 43°34' E 010°18'0 0.0
2014-Nov-14 05:32N 43°34' E 010°18'0 0.0
2014-Nov-14 04:32N 43°34' E 010°18'0 0.0
2014-Nov-14 03:32N 43°34' E 010°18'0 0.0
2014-Nov-14 02:32N 43°34' E 010°18'0 0.0
2014-Nov-14 01:32N 43°34' E 010°18'0 0.0
2014-Nov-14 00:32N 43°34' E 010°18'0 0.0
2014-Nov-13 23:32N 43°34' E 010°18'0 0.0
2014-Nov-13 22:32N 43°34' E 010°18'0 0.0
2014-Nov-13 21:32N 43°34' E 010°18'0 0.0
2014-Nov-13 20:32N 43°34' E 010°18'0 0.0
2014-Nov-13 19:32N 43°34' E 010°18'0 0.0
2014-Nov-13 18:32N 43°34' E 010°18'0 0.0
2014-Nov-13 17:32N 43°34' E 010°18'0 0.0
2014-Nov-13 16:29N 43°34' E 010°18'0 0.0
2014-Nov-13 15:32N 43°34' E 010°18'0 0.0
2014-Nov-13 14:32N 43°34' E 010°18'0 0.0
2014-Nov-13 13:32N 43°34' E 010°18'0 0.0
2014-Nov-13 12:32N 43°34' E 010°18'0 0.0
2014-Nov-13 11:32N 43°34' E 010°18'0 0.0
2014-Nov-13 10:32N 43°34' E 010°18'0 0.0
2014-Nov-13 09:32N 43°34' E 010°18'0 0.0
2014-Nov-13 08:32N 43°34' E 010°18'0 0.0
2014-Nov-13 07:29N 43°34' E 010°18'0 0.0
2014-Nov-13 06:32N 43°34' E 010°18'0 0.0
2014-Nov-13 05:32N 43°34' E 010°18'0 0.0
2014-Nov-13 04:32N 43°34' E 010°18'0 0.0
2014-Nov-13 03:32N 43°34' E 010°18'0 0.0
2014-Nov-13 02:32N 43°34' E 010°18'0 0.0
2014-Nov-13 01:32N 43°34' E 010°18'0 0.0
2014-Nov-13 00:32N 43°34' E 010°18'0 0.0
2014-Nov-12 23:32N 43°34' E 010°18'0 0.0
2014-Nov-12 22:32N 43°34' E 010°18'0 0.0
2014-Nov-12 21:29N 43°34' E 010°18'0 0.0
2014-Nov-12 20:32N 43°34' E 010°18'  

Dump ship's entire track history